Time;durP1;ratioP1;P1;durP2;ratioP2;P2;SDS_P1;SDS_P2;PMS_P1;PMS_P2;Temp;Humidity;BMP_temperature;BMP_pressure;BME280_temperature;BME280_humidity;BME280_pressure;Samples;Min_cycle;Max_cycle;Signal;HPM_P1;HPM_P2
2022/07/28 00:00:24;;;;;;;0.35;0.20;;;24.50;52.70;;;;;;6191372;28;20144;-41
2022/07/28 00:03:26;;;;;;;0.32;0.20;;;25.00;53.00;;;;;;6201931;28;20144;-38
2022/07/28 00:06:28;;;;;;;0.20;0.20;;;24.50;52.80;;;;;;6206274;28;20119;-41
2022/07/28 00:09:30;;;;;;;0.30;0.15;;;24.60;52.80;;;;;;6203387;28;20076;-39
2022/07/28 00:12:32;;;;;;;0.45;0.20;;;24.70;52.90;;;;;;6204530;28;20102;-39
2022/07/28 00:15:33;;;;;;;0.30;0.20;;;24.70;53.00;;;;;;6203259;28;20044;-39
2022/07/28 00:18:35;;;;;;;0.38;0.20;;;24.70;53.00;;;;;;6195850;28;20048;-39
2022/07/28 00:21:36;;;;;;;0.17;0.17;;;24.50;53.00;;;;;;6204779;28;20164;-39
2022/07/28 00:24:38;;;;;;;0.20;0.20;;;24.60;53.10;;;;;;6199793;28;20045;-39
2022/07/28 00:27:40;;;;;;;0.30;0.20;;;24.60;53.10;;;;;;6200588;28;20054;-39
2022/07/28 00:30:41;;;;;;;0.10;0.10;;;24.70;53.20;;;;;;6199215;28;20967;-39
2022/07/28 00:33:43;;;;;;;0.20;0.20;;;24.50;53.10;;;;;;6202594;28;20920;-39
2022/07/28 00:36:44;;;;;;;0.28;0.20;;;24.60;53.20;;;;;;6200913;28;20037;-38
2022/07/28 00:39:47;;;;;;;0.20;0.20;;;24.80;53.20;;;;;;6200584;28;21008;-39
2022/07/28 00:42:48;;;;;;;0.13;0.13;;;24.40;53.10;;;;;;6205251;28;20059;-39
2022/07/28 00:45:49;;;;;;;0.20;0.10;;;24.60;53.30;;;;;;6200487;28;20151;-39
2022/07/28 00:48:53;;;;;;;0.20;0.10;;;24.50;53.30;;;;;;6199963;28;20165;-38
2022/07/28 00:51:56;;;;;;;0.15;0.15;;;24.60;53.30;;;;;;6189972;28;20131;-39
2022/07/28 00:54:58;;;;;;;0.40;0.10;;;24.70;53.40;;;;;;6194037;28;20052;-39
2022/07/28 00:58:00;;;;;;;0.30;0.10;;;24.30;53.20;;;;;;6195806;28;20040;-40
2022/07/28 01:01:02;;;;;;;0.20;0.20;;;24.60;53.50;;;;;;6196315;28;20340;-41
2022/07/28 01:04:05;;;;;;;0.30;0.20;;;24.30;53.30;;;;;;6201702;28;20070;-38
2022/07/28 01:07:16;;;;;;;0.13;0.13;;;24.40;53.40;;;;;;6191766;28;20622;-42
2022/07/28 01:10:26;;;;;;;0.30;0.20;;;24.50;53.60;;;;;;6195259;28;20472;-39
2022/07/28 01:13:36;;;;;;;0.30;0.20;;;24.50;53.60;;;;;;6195645;28;20160;-38
2022/07/28 01:16:48;;;;;;;0.10;0.10;;;24.60;53.60;;;;;;6197084;28;20451;-39
2022/07/28 01:19:59;;;;;;;0.50;0.30;;;24.50;53.70;;;;;;6199754;28;20712;-38
2022/07/28 01:23:12;;;;;;;0.32;0.10;;;24.60;53.70;;;;;;6193312;28;21251;-38
2022/07/28 01:26:37;;;;;;;0.22;0.20;;;24.50;53.70;;;;;;6182949;28;20176;-38
2022/07/28 01:30:02;;;;;;;0.50;0.20;;;24.50;53.80;;;;;;6192204;28;20892;-38
2022/07/28 01:33:16;;;;;;;0.30;0.20;;;24.60;54.00;;;;;;6193928;28;20203;-39
2022/07/28 01:36:24;;;;;;;0.45;0.20;;;24.60;53.90;;;;;;6217109;28;20044;-38
2022/07/28 01:39:31;;;;;;;0.20;0.20;;;24.40;53.90;;;;;;6196502;28;20409;-39
2022/07/28 01:42:37;;;;;;;0.10;0.10;;;24.60;54.00;;;;;;6194757;28;20603;-39
2022/07/28 01:45:40;;;;;;;0.20;0.20;;;24.80;54.10;;;;;;6197744;28;20041;-38
2022/07/28 01:48:43;;;;;;;0.20;0.20;;;24.60;54.20;;;;;;6195007;28;20151;-41
2022/07/28 01:51:46;;;;;;;0.50;0.30;;;24.50;54.00;;;;;;6197694;28;20504;-38
2022/07/28 01:54:50;;;;;;;0.22;0.20;;;24.60;54.20;;;;;;6195140;28;20052;-38
2022/07/28 01:57:55;;;;;;;0.40;0.20;;;24.50;54.20;;;;;;6194397;28;20274;-40
2022/07/28 02:00:59;;;;;;;0.45;0.20;;;24.60;54.20;;;;;;6191839;28;20176;-40
2022/07/28 02:04:03;;;;;;;0.15;0.10;;;24.40;54.10;;;;;;6192904;28;20057;-38
2022/07/28 02:07:09;;;;;;;0.17;0.17;;;24.30;54.20;;;;;;6196556;28;20177;-41
2022/07/28 02:10:13;;;;;;;0.20;0.20;;;24.30;54.20;;;;;;6191970;28;20168;-39
2022/07/28 02:13:15;;;;;;;0.35;0.30;;;24.70;54.40;;;;;;6182575;28;20539;-41
2022/07/28 02:16:18;;;;;;;0.30;0.20;;;24.40;54.40;;;;;;6188627;28;20894;-39
2022/07/28 02:19:22;;;;;;;0.30;0.22;;;24.60;54.40;;;;;;6198136;28;20296;-40
2022/07/28 02:22:26;;;;;;;0.55;0.30;;;24.80;54.60;;;;;;6194160;28;20484;-38
2022/07/28 02:25:29;;;;;;;0.20;0.20;;;24.60;54.50;;;;;;6195723;28;20041;-40
2022/07/28 02:28:31;;;;;;;0.50;0.30;;;24.60;54.50;;;;;;6196723;28;20135;-38
2022/07/28 02:31:40;;;;;;;0.50;0.40;;;24.40;54.50;;;;;;6195750;28;20356;-38
2022/07/28 02:34:46;;;;;;;0.50;0.50;;;24.80;54.70;;;;;;6192289;28;20470;-39
2022/07/28 02:37:59;;;;;;;0.82;0.60;;;24.60;54.60;;;;;;6197840;28;20302;-40
2022/07/28 02:41:10;;;;;;;0.80;0.80;;;24.80;54.80;;;;;;6193743;28;20103;-39
2022/07/28 02:44:16;;;;;;;0.70;0.60;;;24.60;54.70;;;;;;6196520;28;20345;-39
2022/07/28 02:47:24;;;;;;;0.68;0.60;;;24.50;54.60;;;;;;6175371;28;20522;-39
2022/07/28 02:50:27;;;;;;;0.57;0.57;;;24.30;54.70;;;;;;6185016;28;20042;-39
2022/07/28 02:53:30;;;;;;;0.70;0.60;;;24.50;54.70;;;;;;6191441;28;20789;-38
2022/07/28 02:56:32;;;;;;;0.70;0.55;;;24.30;54.60;;;;;;6194358;28;20385;-38
2022/07/28 02:59:35;;;;;;;0.40;0.40;;;24.40;54.70;;;;;;6197602;28;20045;-39
2022/07/28 03:02:40;;;;;;;1.02;0.63;;;24.50;54.80;;;;;;6191265;28;20152;-40
2022/07/28 03:05:44;;;;;;;0.45;0.40;;;24.50;54.90;;;;;;6186003;28;20068;-40
2022/07/28 03:08:49;;;;;;;1.33;0.32;;;24.60;54.90;;;;;;6188956;28;20041;-39
2022/07/28 03:11:51;;;;;;;0.40;0.28;;;24.30;54.70;;;;;;6193225;28;20278;-39
2022/07/28 03:14:53;;;;;;;0.30;0.30;;;24.30;54.70;;;;;;6195650;28;20287;-39
2022/07/28 03:17:54;;;;;;;0.60;0.30;;;24.50;55.00;;;;;;6195026;28;20248;-39
2022/07/28 03:20:57;;;;;;;0.63;0.40;;;24.30;54.90;;;;;;6194188;28;20433;-40
2022/07/28 03:23:59;;;;;;;1.20;0.40;;;24.40;54.90;;;;;;6194316;28;20401;-40
2022/07/28 03:27:12;;;;;;;0.47;0.30;;;24.40;55.00;;;;;;6191270;28;20356;-41
2022/07/28 03:30:15;;;;;;;1.10;0.50;;;24.40;55.10;;;;;;6194142;28;20037;-39
2022/07/28 03:33:17;;;;;;;1.17;0.30;;;24.10;55.00;;;;;;6190679;28;20048;-39
2022/07/28 03:36:28;;;;;;;0.70;0.47;;;24.30;55.30;;;;;;6191640;28;20054;-38
2022/07/28 03:39:45;;;;;;;2.33;0.45;;;24.60;55.50;;;;;;6195578;28;20164;-39
2022/07/28 03:42:48;;;;;;;2.08;0.40;;;24.50;55.50;;;;;;6193159;28;20060;-42
2022/07/28 03:45:50;;;;;;;1.15;0.50;;;24.50;55.50;;;;;;6197281;28;20112;-42
2022/07/28 03:48:52;;;;;;;0.75;0.50;;;24.60;55.70;;;;;;6192985;28;20220;-41
2022/07/28 03:51:54;;;;;;;1.33;0.50;;;24.40;55.70;;;;;;6196855;28;20326;-39
2022/07/28 03:54:55;;;;;;;1.70;0.38;;;24.50;55.70;;;;;;6193511;28;20042;-41
2022/07/28 03:57:57;;;;;;;1.45;0.32;;;24.50;55.80;;;;;;6184993;28;20279;-41
2022/07/28 04:00:58;;;;;;;0.75;0.63;;;24.60;55.90;;;;;;6195821;28;20224;-40
2022/07/28 04:04:00;;;;;;;0.75;0.30;;;24.40;55.90;;;;;;6196944;28;20146;-39
2022/07/28 04:07:02;;;;;;;0.47;0.30;;;24.40;55.90;;;;;;6196264;28;20817;-40
2022/07/28 04:10:05;;;;;;;0.50;0.30;;;24.30;55.90;;;;;;6195179;28;20436;-39
2022/07/28 04:13:07;;;;;;;0.50;0.20;;;24.10;55.70;;;;;;6193535;28;20436;-43
2022/07/28 04:16:08;;;;;;;0.28;0.20;;;24.40;55.90;;;;;;6192094;28;20351;-41
2022/07/28 04:19:10;;;;;;;0.38;0.20;;;24.40;56.00;;;;;;6191244;28;20698;-40
2022/07/28 04:22:12;;;;;;;0.60;0.30;;;24.40;56.00;;;;;;6197036;28;20306;-38
2022/07/28 04:25:15;;;;;;;0.43;0.30;;;24.30;55.90;;;;;;6194262;28;20493;-40
2022/07/28 04:28:17;;;;;;;0.70;0.30;;;24.40;55.90;;;;;;6196346;28;20048;-39
2022/07/28 04:31:18;;;;;;;0.20;0.20;;;24.30;55.90;;;;;;6192703;28;20100;-38
2022/07/28 04:34:20;;;;;;;0.80;0.30;;;24.30;56.00;;;;;;6192098;28;20168;-40
2022/07/28 04:37:22;;;;;;;0.30;0.30;;;24.20;56.00;;;;;;6197220;28;20284;-42
2022/07/28 04:40:25;;;;;;;0.68;0.20;;;24.30;56.10;;;;;;6196273;28;20310;-39
2022/07/28 04:43:26;;;;;;;0.40;0.30;;;24.30;55.90;;;;;;6193367;28;20318;-41
2022/07/28 04:46:28;;;;;;;0.25;0.20;;;24.40;56.00;;;;;;6190150;28;20033;-42
2022/07/28 04:49:30;;;;;;;0.77;0.20;;;24.50;56.30;;;;;;6189421;28;20117;-38
2022/07/28 04:52:37;;;;;;;0.32;0.25;;;24.50;55.60;;;;;;6185053;28;20041;-39
2022/07/28 04:55:39;;;;;;;0.50;0.20;;;24.40;56.20;;;;;;6193169;28;20832;-39
2022/07/28 04:58:40;;;;;;;0.40;0.20;;;24.30;56.30;;;;;;6197877;28;20041;-39
2022/07/28 05:01:44;;;;;;;0.20;0.20;;;24.10;56.10;;;;;;6186786;28;20588;-39
2022/07/28 05:04:46;;;;;;;0.65;0.30;;;24.50;56.40;;;;;;6183108;28;20476;-40
2022/07/28 05:07:48;;;;;;;1.25;0.20;;;24.00;56.20;;;;;;6183051;28;20175;-39
2022/07/28 05:10:54;;;;;;;0.30;0.20;;;24.30;56.30;;;;;;6192508;28;20365;-40
2022/07/28 05:13:55;;;;;;;0.32;0.30;;;24.40;56.30;;;;;;6191716;28;20049;-39
2022/07/28 05:16:57;;;;;;;0.47;0.22;;;24.40;56.50;;;;;;6190097;28;20520;-38
2022/07/28 05:19:58;;;;;;;0.32;0.30;;;24.30;56.60;;;;;;6189390;28;20228;-41
2022/07/28 05:23:02;;;;;;;0.20;0.20;;;24.30;56.50;;;;;;6196136;28;20948;-38
2022/07/28 05:26:05;;;;;;;0.52;0.22;;;24.00;56.30;;;;;;6199161;28;20049;-39
2022/07/28 05:29:07;;;;;;;0.28;0.28;;;24.30;56.50;;;;;;6195695;28;20033;-41
2022/07/28 05:32:09;;;;;;;0.60;0.22;;;24.00;56.40;;;;;;6195751;28;20195;-39
2022/07/28 05:35:19;;;;;;;0.20;0.13;;;24.30;57.10;;;;;;6196207;28;20056;-39
2022/07/28 05:38:21;;;;;;;0.30;0.22;;;24.30;56.60;;;;;;6190885;28;20052;-39
2022/07/28 05:41:22;;;;;;;0.45;0.22;;;24.40;56.70;;;;;;6186922;28;20682;-39
2022/07/28 05:44:24;;;;;;;0.30;0.22;;;24.50;56.80;;;;;;6184318;28;20354;-39
2022/07/28 05:47:25;;;;;;;0.40;0.20;;;24.30;56.80;;;;;;6182679;28;20300;-40
2022/07/28 05:50:27;;;;;;;0.40;0.30;;;24.30;56.80;;;;;;6184263;28;20361;-39
2022/07/28 05:53:29;;;;;;;0.30;0.28;;;24.30;56.50;;;;;;6181155;28;20041;-40
2022/07/28 05:56:30;;;;;;;0.43;0.30;;;24.30;56.80;;;;;;6182763;28;20127;-40
2022/07/28 05:59:32;;;;;;;0.50;0.40;;;24.00;56.70;;;;;;6190306;28;20156;-41
2022/07/28 06:02:33;;;;;;;0.32;0.28;;;24.30;57.00;;;;;;6185532;28;20978;-38
2022/07/28 06:05:36;;;;;;;0.30;0.28;;;24.60;57.00;;;;;;6185453;28;20962;-40
2022/07/28 06:08:58;;;;;;;0.80;0.40;;;24.40;57.00;;;;;;6187164;28;20358;-39
2022/07/28 06:12:00;;;;;;;0.50;0.32;;;24.30;56.90;;;;;;6180665;28;20530;-39
2022/07/28 06:15:04;;;;;;;0.38;0.30;;;24.00;56.70;;;;;;6167452;28;20346;-40
2022/07/28 06:18:06;;;;;;;0.45;0.32;;;24.30;56.90;;;;;;6174672;28;20168;-38
2022/07/28 06:21:07;;;;;;;0.30;0.20;;;24.30;57.10;;;;;;6173389;28;20099;-39
2022/07/28 06:24:09;;;;;;;0.60;0.30;;;24.50;57.00;;;;;;6174314;28;20092;-40
2022/07/28 06:27:11;;;;;;;0.55;0.40;;;24.10;56.80;;;;;;6182221;28;20382;-39
2022/07/28 06:30:17;;;;;;;0.68;0.32;;;24.30;57.00;;;;;;6171979;28;20037;-39
2022/07/28 06:33:18;;;;;;;0.32;0.30;;;24.50;57.10;;;;;;6156198;28;20044;-39
2022/07/28 06:36:20;;;;;;;0.88;0.50;;;24.40;57.10;;;;;;6176323;28;20048;-39
2022/07/28 06:39:22;;;;;;;0.30;0.20;;;24.50;57.10;;;;;;6190161;28;20207;-39
2022/07/28 06:42:24;;;;;;;1.38;0.30;;;24.30;57.00;;;;;;6169503;28;20045;-39
2022/07/28 06:45:25;;;;;;;1.10;0.40;;;24.70;57.20;;;;;;6165574;28;20076;-39
2022/07/28 06:48:27;;;;;;;1.73;0.40;;;25.00;57.20;;;;;;6162497;28;20033;-38
2022/07/28 06:51:31;;;;;;;1.23;0.40;;;24.50;57.20;;;;;;6156252;28;20040;-39
2022/07/28 06:54:33;;;;;;;0.80;0.40;;;24.10;56.80;;;;;;6161539;28;20041;-39
2022/07/28 06:57:35;;;;;;;0.82;0.30;;;24.50;57.20;;;;;;6142677;28;21075;-38
2022/07/28 07:00:37;;;;;;;1.67;0.40;;;24.70;57.30;;;;;;6127559;28;20045;-39
2022/07/28 07:03:38;;;;;;;0.93;0.40;;;25.00;57.50;;;;;;6126275;28;20976;-38
2022/07/28 07:06:40;;;;;;;0.95;0.50;;;24.50;57.30;;;;;;6109394;28;20173;-39
2022/07/28 07:09:42;;;;;;;1.67;0.60;;;24.70;57.40;;;;;;6113540;28;20163;-39
2022/07/28 07:12:44;;;;;;;1.38;0.50;;;24.40;57.90;;;;;;6106207;28;20086;-39
2022/07/28 07:15:46;;;;;;;1.40;0.50;;;24.70;57.50;;;;;;6118164;28;20148;-40
2022/07/28 07:18:51;;;;;;;0.95;0.63;;;24.80;57.20;;;;;;6114335;28;22253;-44
2022/07/28 07:21:53;;;;;;;3.13;0.80;;;24.80;57.50;;;;;;6127783;28;20252;-41
2022/07/28 07:24:55;;;;;;;2.53;0.70;;;24.70;57.50;;;;;;6102698;28;20044;-41
2022/07/28 07:27:59;;;;;;;3.13;0.80;;;24.70;57.80;;;;;;6103975;28;20053;-40
2022/07/28 07:31:00;;;;;;;2.85;0.60;;;24.70;57.40;;;;;;6111544;28;20056;-41
2022/07/28 07:34:02;;;;;;;3.17;0.57;;;24.80;57.90;;;;;;6092653;28;20057;-42
2022/07/28 07:37:05;;;;;;;1.58;0.50;;;24.90;57.90;;;;;;6107478;28;20167;-42
2022/07/28 07:40:08;;;;;;;1.83;0.65;;;24.90;57.80;;;;;;6129213;28;20045;-42
2022/07/28 07:43:10;;;;;;;2.28;0.70;;;24.50;57.30;;;;;;6100636;28;20049;-42
2022/07/28 07:46:12;;;;;;;1.02;0.35;;;24.80;57.50;;;;;;6096699;28;20155;-46
2022/07/28 07:49:15;;;;;;;1.08;0.60;;;25.10;57.40;;;;;;6087556;28;20041;-43
2022/07/28 07:52:17;;;;;;;0.40;0.30;;;25.20;57.60;;;;;;6124720;28;20930;-42
2022/07/28 07:55:19;;;;;;;2.00;0.50;;;24.90;57.00;;;;;;6132567;28;21628;-43
2022/07/28 07:58:21;;;;;;;1.08;0.47;;;25.10;57.20;;;;;;6084908;28;20045;-41
2022/07/28 08:01:23;;;;;;;0.50;0.32;;;25.60;56.80;;;;;;6082328;28;20049;-40
2022/07/28 08:04:25;;;;;;;1.85;0.30;;;25.20;56.80;;;;;;6087325;28;20048;-40
2022/07/28 08:07:29;;;;;;;0.85;0.40;;;25.30;56.80;;;;;;6109440;28;20042;-41
2022/07/28 08:10:32;;;;;;;0.77;0.40;;;25.30;56.60;;;;;;6128391;28;20088;-41
2022/07/28 08:13:34;;;;;;;1.33;0.32;;;25.30;56.30;;;;;;6091638;28;20189;-41
2022/07/28 08:16:36;;;;;;;0.95;0.30;;;25.10;56.10;;;;;;6105832;28;20364;-42
2022/07/28 08:19:38;;;;;;;0.70;0.50;;;25.00;55.50;;;;;;6096892;28;20595;-41
2022/07/28 08:22:48;;;;;;;1.25;0.52;;;25.30;56.00;;;;;;6117014;28;20214;-41
2022/07/28 08:25:50;;;;;;;0.68;0.40;;;25.40;55.60;;;;;;6108575;28;20171;-41
2022/07/28 08:28:51;;;;;;;0.50;0.30;;;25.40;55.60;;;;;;6123493;28;21345;-43
2022/07/28 08:31:53;;;;;;;0.80;0.40;;;25.40;55.40;;;;;;6109658;28;20045;-41
2022/07/28 08:34:54;;;;;;;0.57;0.40;;;25.40;55.30;;;;;;6056957;28;20049;-42
2022/07/28 08:38:16;;;;;;;0.40;0.20;;;25.50;55.20;;;;;;6109677;28;20041;-40
2022/07/28 08:41:25;;;;;;;1.30;0.35;;;25.50;55.10;;;;;;6071924;28;20049;-41
2022/07/28 08:44:45;;;;;;;0.52;0.50;;;25.40;54.70;;;;;;6094520;28;20048;-44
2022/07/28 08:47:48;;;;;;;0.80;0.40;;;25.50;54.50;;;;;;6096307;28;20048;-41
2022/07/28 08:51:11;;;;;;;0.30;0.30;;;25.50;55.20;;;;;;6121813;28;20490;-42
2022/07/28 08:54:17;;;;;;;0.60;0.57;;;25.40;54.30;;;;;;6048763;28;21954;-42
2022/07/28 08:57:25;;;;;;;0.88;0.40;;;25.50;54.30;;;;;;6100459;28;21443;-41
2022/07/28 09:00:27;;;;;;;0.55;0.30;;;25.70;54.30;;;;;;6080580;28;20143;-40
2022/07/28 09:03:29;;;;;;;0.40;0.30;;;25.20;53.90;;;;;;6080334;28;20068;-41
2022/07/28 09:06:30;;;;;;;0.57;0.38;;;25.60;54.00;;;;;;6109928;28;20053;-41
2022/07/28 09:09:33;;;;;;;0.90;0.30;;;25.50;53.90;;;;;;6117416;28;20041;-41
2022/07/28 09:12:35;;;;;;;0.95;0.40;;;26.00;54.10;;;;;;6120841;28;20142;-41
2022/07/28 09:15:37;;;;;;;0.50;0.50;;;25.50;53.90;;;;;;6113058;28;20045;-41
2022/07/28 09:18:38;;;;;;;0.55;0.32;;;25.50;54.20;;;;;;6107012;28;20033;-39
2022/07/28 09:21:42;;;;;;;0.68;0.40;;;25.40;53.90;;;;;;6113663;28;20048;-42
2022/07/28 09:24:44;;;;;;;0.20;0.20;;;25.50;53.90;;;;;;6119948;28;20114;-43
2022/07/28 09:27:46;;;;;;;0.40;0.30;;;25.50;53.90;;;;;;6106693;28;20355;-42
2022/07/28 09:30:49;;;;;;;1.02;0.40;;;25.30;53.80;;;;;;6091194;28;20079;-40
2022/07/28 09:33:59;;;;;;;0.38;0.30;;;25.50;53.90;;;;;;6090125;28;20045;-41
2022/07/28 09:37:01;;;;;;;0.75;0.40;;;25.50;53.90;;;;;;6084889;28;20043;-41
2022/07/28 09:40:10;;;;;;;1.42;0.30;;;25.50;53.80;;;;;;6084184;28;20072;-40
2022/07/28 09:43:12;;;;;;;0.98;0.32;;;25.30;53.40;;;;;;6088374;28;20064;-40
2022/07/28 09:46:16;;;;;;;0.40;0.30;;;25.60;53.20;;;;;;6045727;28;20049;-41
2022/07/28 09:49:18;;;;;;;0.57;0.40;;;25.50;53.40;;;;;;6070803;28;20084;-39
2022/07/28 09:52:29;;;;;;;1.05;0.30;;;25.50;53.00;;;;;;6091993;28;20107;-39
2022/07/28 09:55:34;;;;;;;0.60;0.20;;;25.60;53.30;;;;;;6095635;28;20042;-38
2022/07/28 09:58:37;;;;;;;0.30;0.30;;;25.50;53.00;;;;;;6089853;28;20279;-39
2022/07/28 10:01:51;;;;;;;0.32;0.30;;;25.70;53.20;;;;;;6078703;28;21098;-39
2022/07/28 10:04:53;;;;;;;0.20;0.20;;;25.30;52.70;;;;;;6064879;28;22229;-38
2022/07/28 10:07:54;;;;;;;0.32;0.22;;;25.40;52.70;;;;;;6090569;28;20045;-37
2022/07/28 10:10:59;;;;;;;0.30;0.28;;;25.40;52.70;;;;;;6093700;28;20045;-37
2022/07/28 10:14:03;;;;;;;0.22;0.22;;;25.60;52.60;;;;;;6076623;28;20084;-38
2022/07/28 10:17:05;;;;;;;0.25;0.20;;;25.50;52.20;;;;;;6090120;28;20049;-39
2022/07/28 10:20:09;;;;;;;0.60;0.20;;;25.50;51.60;;;;;;6099452;28;21500;-39
2022/07/28 10:23:13;;;;;;;0.52;0.28;;;25.90;52.20;;;;;;6095527;28;20165;-40
2022/07/28 10:26:16;;;;;;;0.52;0.30;;;25.70;52.30;;;;;;6095005;28;20040;-39
2022/07/28 10:29:21;;;;;;;0.20;0.20;;;25.50;51.60;;;;;;6095606;28;21067;-40
2022/07/28 10:32:23;;;;;;;0.25;0.20;;;25.40;51.40;;;;;;6092329;28;20147;-40
2022/07/28 10:35:26;;;;;;;0.45;0.25;;;25.30;51.20;;;;;;6096302;28;20044;-39
2022/07/28 10:38:34;;;;;;;0.38;0.20;;;25.50;51.10;;;;;;6112629;28;20155;-39
2022/07/28 10:41:40;;;;;;;0.20;0.20;;;25.50;50.90;;;;;;6119122;28;20069;-38
2022/07/28 10:44:46;;;;;;;0.30;0.20;;;25.50;50.80;;;;;;6089050;28;20036;-38
2022/07/28 10:47:48;;;;;;;0.30;0.20;;;25.70;50.70;;;;;;6141717;28;21199;-40
2022/07/28 10:50:50;;;;;;;0.47;0.28;;;25.30;49.70;;;;;;6135070;28;20072;-40
2022/07/28 10:53:55;;;;;;;0.10;0.10;;;25.60;50.30;;;;;;6113594;28;20702;-41
2022/07/28 10:56:59;;;;;;;0.20;0.20;;;25.50;50.20;;;;;;6117211;28;20045;-41
2022/07/28 11:00:16;;;;;;;0.75;0.25;;;25.70;50.30;;;;;;6124807;28;20111;-41
2022/07/28 11:03:43;;;;;;;0.60;0.20;;;25.70;50.10;;;;;;6137978;28;39548;-41
2022/07/28 11:06:46;;;;;;;0.25;0.20;;;25.50;50.00;;;;;;6137195;28;20049;-41
2022/07/28 11:09:48;;;;;;;0.30;0.30;;;25.60;50.00;;;;;;6129294;28;20068;-40
2022/07/28 11:12:51;;;;;;;0.20;0.20;;;25.50;50.00;;;;;;6121679;28;20095;-41
2022/07/28 11:15:55;;;;;;;0.30;0.20;;;25.80;50.20;;;;;;6107791;28;20044;-41
2022/07/28 11:19:07;;;;;;;0.20;0.17;;;25.50;50.00;;;;;;6113504;28;20148;-40
2022/07/28 11:22:28;;;;;;;0.10;0.10;;;25.60;49.80;;;;;;6117345;28;21043;-41
2022/07/28 11:25:31;;;;;;;0.17;0.10;;;25.50;49.80;;;;;;6118507;28;22071;-41
2022/07/28 11:29:08;;;;;;;0.13;0.13;;;25.80;49.80;;;;;;6133988;28;20045;-41
2022/07/28 11:32:10;;;;;;;0.30;0.20;;;25.50;49.50;;;;;;6097998;28;20041;-43
2022/07/28 11:35:11;;;;;;;1.05;0.13;;;25.40;49.30;;;;;;6120927;28;20037;-41
2022/07/28 11:38:14;;;;;;;0.20;0.20;;;25.50;49.60;;;;;;6136425;28;20080;-41
2022/07/28 11:41:29;;;;;;;0.35;0.20;;;25.40;49.30;;;;;;6139192;28;20139;-41
2022/07/28 11:44:35;;;;;;;0.52;0.20;;;25.70;49.40;;;;;;6112993;28;20045;-41
2022/07/28 11:47:38;;;;;;;0.20;0.20;;;25.50;49.40;;;;;;6110024;28;21547;-43
2022/07/28 11:50:40;;;;;;;0.10;0.10;;;25.20;49.30;;;;;;6137834;28;21680;-42
2022/07/28 11:53:44;;;;;;;2.35;0.20;;;25.10;49.20;;;;;;6099552;28;20045;-42
2022/07/28 11:56:56;;;;;;;0.30;0.30;;;25.20;49.20;;;;;;6111575;28;20049;-41
2022/07/28 12:00:00;;;;;;;0.30;0.20;;;25.50;49.30;;;;;;6091592;28;20045;-40
2022/07/28 12:03:04;;;;;;;0.82;0.20;;;25.30;49.40;;;;;;6070656;28;20043;-41
2022/07/28 12:06:07;;;;;;;0.45;0.25;;;25.30;49.80;;;;;;6074493;28;20052;-41
2022/07/28 12:09:12;;;;;;;0.10;0.10;;;25.40;49.60;;;;;;6116619;28;20506;-42
2022/07/28 12:12:13;;;;;;;0.20;0.20;;;24.90;49.20;;;;;;6098879;28;20045;-42
2022/07/28 12:15:16;;;;;;;0.30;0.10;;;25.30;49.70;;;;;;6068034;28;20165;-41
2022/07/28 12:18:18;;;;;;;0.52;0.10;;;24.80;49.00;;;;;;6085909;28;20175;-42
2022/07/28 12:21:35;;;;;;;1.55;0.20;;;25.30;49.80;;;;;;6084095;28;20045;-40
2022/07/28 12:24:37;;;;;;;0.30;0.20;;;25.40;49.60;;;;;;6081715;28;20051;-38
2022/07/28 12:27:47;;;;;;;0.55;0.20;;;25.20;49.40;;;;;;6092569;28;20100;-39
2022/07/28 12:30:50;;;;;;;0.30;0.20;;;25.30;49.60;;;;;;6099918;28;21127;-40
2022/07/28 12:33:53;;;;;;;0.70;0.20;;;25.50;49.60;;;;;;6076938;28;21167;-40
2022/07/28 12:36:56;;;;;;;0.20;0.20;;;25.50;49.40;;;;;;6094007;28;20045;-41
2022/07/28 12:40:01;;;;;;;0.70;0.20;;;25.40;49.40;;;;;;6083434;28;21180;-40
2022/07/28 12:43:02;;;;;;;0.25;0.10;;;25.20;49.10;;;;;;6111192;28;20044;-39
2022/07/28 12:46:04;;;;;;;0.60;0.35;;;25.30;49.20;;;;;;6109130;28;20090;-40
2022/07/28 12:49:20;;;;;;;0.13;0.13;;;25.60;49.10;;;;;;6094243;28;20060;-39
2022/07/28 12:52:24;;;;;;;0.10;0.10;;;25.90;48.80;;;;;;6052832;28;20138;-40
2022/07/28 12:55:28;;;;;;;0.40;0.20;;;25.70;49.00;;;;;;6085686;28;20048;-38
2022/07/28 12:58:30;;;;;;;0.35;0.20;;;25.20;48.50;;;;;;6105038;28;20134;-41
2022/07/28 13:01:46;;;;;;;0.10;0.10;;;25.60;48.60;;;;;;6095669;28;20155;-39
2022/07/28 13:04:49;;;;;;;0.30;0.25;;;25.60;48.60;;;;;;6076735;28;20044;-38
2022/07/28 13:07:57;;;;;;;0.20;0.10;;;25.70;48.70;;;;;;6111115;28;20043;-39
2022/07/28 13:10:59;;;;;;;0.20;0.10;;;25.70;48.70;;;;;;6103667;28;20172;-38
2022/07/28 13:14:01;;;;;;;0.20;0.20;;;25.40;48.20;;;;;;6077845;28;20269;-39
2022/07/28 13:17:03;;;;;;;0.38;0.30;;;25.80;48.70;;;;;;6099591;28;20059;-38
2022/07/28 13:20:08;;;;;;;0.30;0.20;;;25.40;48.50;;;;;;6094839;28;21215;-38
2022/07/28 13:23:10;;;;;;;0.30;0.20;;;25.40;48.50;;;;;;6086190;28;20179;-39
2022/07/28 13:26:12;;;;;;;0.15;0.15;;;25.40;48.30;;;;;;6096272;28;21828;-38
2022/07/28 13:29:13;;;;;;;0.15;0.13;;;25.50;48.50;;;;;;6121206;28;20080;-38
2022/07/28 13:32:15;;;;;;;0.20;0.20;;;25.10;48.10;;;;;;6103940;28;20036;-39
2022/07/28 13:35:18;;;;;;;0.57;0.20;;;25.30;48.30;;;;;;6121518;28;20052;-39
2022/07/28 13:38:23;;;;;;;0.75;0.20;;;25.30;48.00;;;;;;6097161;28;20171;-38
2022/07/28 13:41:25;;;;;;;0.20;0.20;;;25.40;48.30;;;;;;6108787;28;20120;-38
2022/07/28 13:44:46;;;;;;;;;;;25.50;48.30;;;;;;6086673;28;20037;-38
2022/07/28 13:47:47;;;;;;;;;;;25.40;48.70;;;;;;6109117;28;19936;-38
2022/07/28 13:50:54;;;;;;;0.30;0.20;;;25.50;48.70;;;;;;6102599;28;19928;-38
2022/07/28 13:53:55;;;;;;;0.20;0.20;;;25.40;48.50;;;;;;6105815;28;20161;-39
2022/07/28 13:57:13;;;;;;;0.43;0.20;;;25.40;48.10;;;;;;6091335;28;20045;-38
2022/07/28 14:00:16;;;;;;;0.55;0.20;;;25.30;47.90;;;;;;6089685;28;21560;-39
2022/07/28 14:03:18;;;;;;;0.35;0.22;;;25.10;47.80;;;;;;6068223;28;20175;-39
2022/07/28 14:06:20;;;;;;;0.20;0.20;;;25.30;47.80;;;;;;6073360;28;20049;-38
2022/07/28 14:09:23;;;;;;;0.20;0.20;;;25.30;47.90;;;;;;6098016;28;20053;-38
2022/07/28 14:12:25;;;;;;;0.40;0.20;;;25.10;47.80;;;;;;6094432;28;20049;-38
2022/07/28 14:15:33;;;;;;;0.45;0.30;;;25.40;47.80;;;;;;6248115;27;20232;-38
2022/07/28 14:18:35;;;;;;;0.17;0.15;;;25.20;47.90;;;;;;6268909;27;20080;-37
2022/07/28 14:21:37;;;;;;;0.25;0.20;;;25.10;47.90;;;;;;6269019;27;21967;-37
2022/07/28 14:24:39;;;;;;;0.45;0.30;;;25.30;47.70;;;;;;6271377;27;20164;-39
2022/07/28 14:27:40;;;;;;;0.52;0.20;;;25.40;48.00;;;;;;6269460;27;21754;-38
2022/07/28 14:30:42;;;;;;;0.20;0.10;;;25.50;47.70;;;;;;6269748;27;21315;-38
2022/07/28 14:33:44;;;;;;;0.20;0.13;;;25.50;47.90;;;;;;6272456;27;20045;-38
2022/07/28 14:36:52;;;;;;;0.20;0.20;;;25.30;47.80;;;;;;6267276;27;20389;-39
2022/07/28 14:39:54;;;;;;;0.25;0.20;;;25.10;47.60;;;;;;6273062;27;20030;-39
2022/07/28 14:42:55;;;;;;;0.32;0.20;;;25.30;47.80;;;;;;6248277;27;20047;-39
2022/07/28 14:45:58;;;;;;;0.30;0.20;;;25.00;48.00;;;;;;6261567;27;20046;-38
2022/07/28 14:49:20;;;;;;;2.17;0.20;;;24.80;47.80;;;;;;6256929;27;21946;-38
2022/07/28 14:52:22;;;;;;;1.02;0.10;;;25.30;48.60;;;;;;6267101;27;20052;-38
2022/07/28 14:55:24;;;;;;;0.68;0.30;;;25.30;48.60;;;;;;6254982;27;20042;-38
2022/07/28 14:58:26;;;;;;;0.73;0.30;;;25.10;48.80;;;;;;6277850;27;20042;-39
2022/07/28 15:01:28;;;;;;;0.32;0.30;;;25.20;49.20;;;;;;6272973;27;20050;-38
2022/07/28 15:04:37;;;;;;;0.38;0.20;;;25.60;50.30;;;;;;6246367;27;21342;-39
2022/07/28 15:07:40;;;;;;;0.52;0.20;;;25.30;50.20;;;;;;6248000;27;20148;-38
2022/07/28 15:10:42;;;;;;;0.22;0.20;;;25.20;50.80;;;;;;6268822;27;21167;-38
2022/07/28 15:13:43;;;;;;;0.20;0.20;;;25.50;51.30;;;;;;6233645;27;20045;-39
2022/07/28 15:16:46;;;;;;;0.57;0.30;;;25.90;51.80;;;;;;6246465;27;20046;-41
2022/07/28 15:19:48;;;;;;;0.40;0.20;;;25.60;51.70;;;;;;6285021;27;20046;-40
2022/07/28 15:22:50;;;;;;;0.30;0.30;;;25.40;51.90;;;;;;6274723;27;20153;-40
2022/07/28 15:25:52;;;;;;;0.75;0.30;;;25.70;52.10;;;;;;6257337;27;20185;-41
2022/07/28 15:28:54;;;;;;;0.57;0.30;;;25.80;52.30;;;;;;6236438;27;20189;-40
2022/07/28 15:31:56;;;;;;;0.80;0.20;;;25.80;51.80;;;;;;6266299;27;20847;-39
2022/07/28 15:34:59;;;;;;;0.35;0.20;;;25.30;52.30;;;;;;6276980;27;20042;-41
2022/07/28 15:38:05;;;;;;;0.20;0.20;;;25.20;52.20;;;;;;6278407;27;20200;-39
2022/07/28 15:41:06;;;;;;;0.20;0.20;;;25.50;53.20;;;;;;6281790;27;20141;-40
2022/07/28 15:44:08;;;;;;;1.40;0.25;;;25.70;52.60;;;;;;6276617;27;20044;-38
2022/07/28 15:47:10;;;;;;;0.20;0.20;;;25.80;52.70;;;;;;6247215;27;20072;-39
2022/07/28 15:50:18;;;;;;;0.20;0.20;;;25.60;52.30;;;;;;6249342;27;20667;-38
2022/07/28 15:53:20;;;;;;;0.25;0.20;;;25.70;52.70;;;;;;6249831;27;20038;-40
2022/07/28 15:56:22;;;;;;;0.30;0.20;;;25.70;52.20;;;;;;6276568;27;22040;-40
2022/07/28 15:59:24;;;;;;;0.50;0.20;;;25.60;52.80;;;;;;6283519;27;20034;-39